sensor_id;sensor_type;location;lat;lon;timestamp;temperature;humidity
26262;DHT22;13988;52.446;13.280;2022-11-06T00:01:07;4.10;99.90
26262;DHT22;13988;52.446;13.280;2022-11-06T00:03:34;4.10;99.90
26262;DHT22;13988;52.446;13.280;2022-11-06T00:06:05;4.00;99.90
26262;DHT22;13988;52.446;13.280;2022-11-06T00:08:50;4.10;99.90
26262;DHT22;13988;52.446;13.280;2022-11-06T00:11:16;4.00;99.90
26262;DHT22;13988;52.446;13.280;2022-11-06T00:13:43;4.00;99.90
26262;DHT22;13988;52.446;13.280;2022-11-06T00:16:10;3.90;99.90
26262;DHT22;13988;52.446;13.280;2022-11-06T00:18:37;4.00;99.90
26262;DHT22;13988;52.446;13.280;2022-11-06T00:21:15;3.90;99.90
26262;DHT22;13988;52.446;13.280;2022-11-06T00:23:41;4.00;99.90
26262;DHT22;13988;52.446;13.280;2022-11-06T00:26:09;4.00;99.90
26262;DHT22;13988;52.446;13.280;2022-11-06T00:28:36;4.00;99.90
26262;DHT22;13988;52.446;13.280;2022-11-06T00:31:03;4.00;99.90
26262;DHT22;13988;52.446;13.280;2022-11-06T00:33:29;3.90;99.90
26262;DHT22;13988;52.446;13.280;2022-11-06T00:35:55;3.90;99.90
26262;DHT22;13988;52.446;13.280;2022-11-06T00:38:21;3.90;99.90
26262;DHT22;13988;52.446;13.280;2022-11-06T00:40:46;3.90;99.90
26262;DHT22;13988;52.446;13.280;2022-11-06T00:43:12;3.90;99.90
26262;DHT22;13988;52.446;13.280;2022-11-06T00:45:37;3.90;99.90
26262;DHT22;13988;52.446;13.280;2022-11-06T00:48:03;3.80;99.90
26262;DHT22;13988;52.446;13.280;2022-11-06T00:50:29;3.80;99.90
26262;DHT22;13988;52.446;13.280;2022-11-06T00:52:54;3.90;99.90
26262;DHT22;13988;52.446;13.280;2022-11-06T00:55:20;3.90;99.90
26262;DHT22;13988;52.446;13.280;2022-11-06T00:57:46;3.90;99.90
26262;DHT22;13988;52.446;13.280;2022-11-06T01:00:12;4.00;99.90
26262;DHT22;13988;52.446;13.280;2022-11-06T01:02:37;4.00;99.90
26262;DHT22;13988;52.446;13.280;2022-11-06T01:05:04;4.00;99.90
26262;DHT22;13988;52.446;13.280;2022-11-06T01:07:30;4.00;99.90
26262;DHT22;13988;52.446;13.280;2022-11-06T01:09:55;4.00;99.90
26262;DHT22;13988;52.446;13.280;2022-11-06T01:12:21;4.00;99.90
26262;DHT22;13988;52.446;13.280;2022-11-06T01:14:47;4.00;99.90
26262;DHT22;13988;52.446;13.280;2022-11-06T01:17:12;3.90;99.90
26262;DHT22;13988;52.446;13.280;2022-11-06T01:19:38;3.90;99.90
26262;DHT22;13988;52.446;13.280;2022-11-06T01:22:04;3.90;99.90
26262;DHT22;13988;52.446;13.280;2022-11-06T01:24:29;3.90;99.90
26262;DHT22;13988;52.446;13.280;2022-11-06T01:26:55;3.90;99.90
26262;DHT22;13988;52.446;13.280;2022-11-06T01:29:21;3.90;99.90
26262;DHT22;13988;52.446;13.280;2022-11-06T01:31:47;3.90;99.90
26262;DHT22;13988;52.446;13.280;2022-11-06T01:34:16;3.90;99.90
26262;DHT22;13988;52.446;13.280;2022-11-06T01:36:42;3.90;99.90
26262;DHT22;13988;52.446;13.280;2022-11-06T01:39:10;3.90;99.90
26262;DHT22;13988;52.446;13.280;2022-11-06T01:41:39;3.90;99.90
26262;DHT22;13988;52.446;13.280;2022-11-06T01:47:21;3.90;99.90
26262;DHT22;13988;52.446;13.280;2022-11-06T01:49:48;4.00;99.90
26262;DHT22;13988;52.446;13.280;2022-11-06T01:52:15;4.00;99.90
26262;DHT22;13988;52.446;13.280;2022-11-06T01:54:44;4.00;99.90
26262;DHT22;13988;52.446;13.280;2022-11-06T01:57:10;4.00;99.90
26262;DHT22;13988;52.446;13.280;2022-11-06T01:59:42;4.00;99.90
26262;DHT22;13988;52.446;13.280;2022-11-06T02:02:08;4.00;99.90
26262;DHT22;13988;52.446;13.280;2022-11-06T02:04:41;4.00;99.90
26262;DHT22;13988;52.446;13.280;2022-11-06T02:07:07;4.00;99.90
26262;DHT22;13988;52.446;13.280;2022-11-06T02:09:33;4.00;99.90
26262;DHT22;13988;52.446;13.280;2022-11-06T02:12:41;4.00;99.90
26262;DHT22;13988;52.446;13.280;2022-11-06T02:15:18;4.00;99.90
26262;DHT22;13988;52.446;13.280;2022-11-06T02:18:37;4.00;99.90
26262;DHT22;13988;52.446;13.280;2022-11-06T02:26:23;4.10;99.90
26262;DHT22;13988;52.446;13.280;2022-11-06T02:29:02;4.10;99.90
26262;DHT22;13988;52.446;13.280;2022-11-06T02:31:33;4.10;99.90
26262;DHT22;13988;52.446;13.280;2022-11-06T02:34:10;4.10;99.90
26262;DHT22;13988;52.446;13.280;2022-11-06T02:36:43;4.10;99.90
26262;DHT22;13988;52.446;13.280;2022-11-06T02:39:14;4.20;99.90
26262;DHT22;13988;52.446;13.280;2022-11-06T02:41:43;4.20;99.90
26262;DHT22;13988;52.446;13.280;2022-11-06T02:44:16;4.20;99.90
26262;DHT22;13988;52.446;13.280;2022-11-06T02:46:47;4.20;99.90
26262;DHT22;13988;52.446;13.280;2022-11-06T02:51:53;4.20;99.90
26262;DHT22;13988;52.446;13.280;2022-11-06T02:54:23;4.20;99.90
26262;DHT22;13988;52.446;13.280;2022-11-06T02:56:51;4.20;99.90
26262;DHT22;13988;52.446;13.280;2022-11-06T02:59:27;4.20;99.90
26262;DHT22;13988;52.446;13.280;2022-11-06T03:01:58;4.20;99.90
26262;DHT22;13988;52.446;13.280;2022-11-06T03:04:29;4.20;99.90
26262;DHT22;13988;52.446;13.280;2022-11-06T03:07:11;4.20;99.90
26262;DHT22;13988;52.446;13.280;2022-11-06T03:09:41;4.20;99.90
26262;DHT22;13988;52.446;13.280;2022-11-06T03:12:33;4.20;99.90
26262;DHT22;13988;52.446;13.280;2022-11-06T03:15:35;4.20;99.90
26262;DHT22;13988;52.446;13.280;2022-11-06T03:18:17;4.10;99.90
26262;DHT22;13988;52.446;13.280;2022-11-06T03:21:47;4.20;99.90
26262;DHT22;13988;52.446;13.280;2022-11-06T03:24:11;4.10;99.90
26262;DHT22;13988;52.446;13.280;2022-11-06T03:26:44;4.00;99.90
26262;DHT22;13988;52.446;13.280;2022-11-06T03:29:48;4.00;99.90
26262;DHT22;13988;52.446;13.280;2022-11-06T03:35:10;3.90;99.90
26262;DHT22;13988;52.446;13.280;2022-11-06T03:40:42;3.80;99.90
26262;DHT22;13988;52.446;13.280;2022-11-06T03:43:09;3.80;99.90
26262;DHT22;13988;52.446;13.280;2022-11-06T03:45:39;3.80;99.90
26262;DHT22;13988;52.446;13.280;2022-11-06T03:48:12;3.80;99.90
26262;DHT22;13988;52.446;13.280;2022-11-06T03:50:47;3.70;99.90
26262;DHT22;13988;52.446;13.280;2022-11-06T03:53:21;3.70;99.90
26262;DHT22;13988;52.446;13.280;2022-11-06T03:55:56;3.60;99.90
26262;DHT22;13988;52.446;13.280;2022-11-06T03:58:30;3.60;99.90
26262;DHT22;13988;52.446;13.280;2022-11-06T04:00:58;3.60;99.90
26262;DHT22;13988;52.446;13.280;2022-11-06T04:03:31;3.60;99.90
26262;DHT22;13988;52.446;13.280;2022-11-06T04:06:12;3.60;99.90
26262;DHT22;13988;52.446;13.280;2022-11-06T04:08:40;3.60;99.90
26262;DHT22;13988;52.446;13.280;2022-11-06T04:11:28;3.60;99.90
26262;DHT22;13988;52.446;13.280;2022-11-06T04:14:14;3.60;99.90
26262;DHT22;13988;52.446;13.280;2022-11-06T04:16:45;3.50;99.90
26262;DHT22;13988;52.446;13.280;2022-11-06T04:19:14;3.50;99.90
26262;DHT22;13988;52.446;13.280;2022-11-06T04:24:38;3.50;99.90
26262;DHT22;13988;52.446;13.280;2022-11-06T04:27:47;3.50;99.90
26262;DHT22;13988;52.446;13.280;2022-11-06T04:30:14;3.50;99.90
26262;DHT22;13988;52.446;13.280;2022-11-06T04:39:05;3.50;99.90
26262;DHT22;13988;52.446;13.280;2022-11-06T04:41:42;3.50;99.90
26262;DHT22;13988;52.446;13.280;2022-11-06T04:44:28;3.60;99.90
26262;DHT22;13988;52.446;13.280;2022-11-06T04:47:01;3.60;99.90
26262;DHT22;13988;52.446;13.280;2022-11-06T04:49:30;3.60;99.90
26262;DHT22;13988;52.446;13.280;2022-11-06T04:51:57;3.50;99.90
26262;DHT22;13988;52.446;13.280;2022-11-06T04:54:25;3.60;99.90
26262;DHT22;13988;52.446;13.280;2022-11-06T04:56:50;3.50;99.90
26262;DHT22;13988;52.446;13.280;2022-11-06T04:59:17;3.50;99.90
26262;DHT22;13988;52.446;13.280;2022-11-06T05:01:43;3.50;99.90
26262;DHT22;13988;52.446;13.280;2022-11-06T05:04:11;3.60;99.90
26262;DHT22;13988;52.446;13.280;2022-11-06T05:06:36;3.60;99.90
26262;DHT22;13988;52.446;13.280;2022-11-06T05:09:02;3.60;99.90
26262;DHT22;13988;52.446;13.280;2022-11-06T05:11:27;3.70;99.90
26262;DHT22;13988;52.446;13.280;2022-11-06T05:13:53;3.70;99.90
26262;DHT22;13988;52.446;13.280;2022-11-06T05:16:19;3.70;99.90
26262;DHT22;13988;52.446;13.280;2022-11-06T05:18:44;3.60;99.90
26262;DHT22;13988;52.446;13.280;2022-11-06T05:21:10;3.60;99.90
26262;DHT22;13988;52.446;13.280;2022-11-06T05:23:54;3.70;99.90
26262;DHT22;13988;52.446;13.280;2022-11-06T05:26:19;3.80;99.90
26262;DHT22;13988;52.446;13.280;2022-11-06T05:28:45;3.80;99.90
26262;DHT22;13988;52.446;13.280;2022-11-06T05:31:10;3.70;99.90
26262;DHT22;13988;52.446;13.280;2022-11-06T05:33:36;3.80;99.90
26262;DHT22;13988;52.446;13.280;2022-11-06T05:36:03;3.80;99.90
26262;DHT22;13988;52.446;13.280;2022-11-06T05:38:29;3.70;99.90
26262;DHT22;13988;52.446;13.280;2022-11-06T05:40:55;3.70;99.90
26262;DHT22;13988;52.446;13.280;2022-11-06T05:43:20;3.70;99.90
26262;DHT22;13988;52.446;13.280;2022-11-06T05:45:46;3.70;99.90
26262;DHT22;13988;52.446;13.280;2022-11-06T05:48:12;3.70;99.90
26262;DHT22;13988;52.446;13.280;2022-11-06T05:50:37;3.70;99.90
26262;DHT22;13988;52.446;13.280;2022-11-06T05:53:03;3.70;99.90
26262;DHT22;13988;52.446;13.280;2022-11-06T05:55:29;3.60;99.90
26262;DHT22;13988;52.446;13.280;2022-11-06T05:57:55;3.70;99.90
26262;DHT22;13988;52.446;13.280;2022-11-06T06:00:20;3.70;99.90
26262;DHT22;13988;52.446;13.280;2022-11-06T06:02:46;3.60;99.90
26262;DHT22;13988;52.446;13.280;2022-11-06T06:05:11;3.60;99.90
26262;DHT22;13988;52.446;13.280;2022-11-06T06:07:37;3.60;99.90
26262;DHT22;13988;52.446;13.280;2022-11-06T06:10:03;3.60;99.90
26262;DHT22;13988;52.446;13.280;2022-11-06T06:12:28;3.60;99.90
26262;DHT22;13988;52.446;13.280;2022-11-06T06:14:54;3.60;99.90
26262;DHT22;13988;52.446;13.280;2022-11-06T06:17:20;3.60;99.90
26262;DHT22;13988;52.446;13.280;2022-11-06T06:19:46;3.60;99.90
26262;DHT22;13988;52.446;13.280;2022-11-06T06:22:12;3.70;99.90
26262;DHT22;13988;52.446;13.280;2022-11-06T06:24:37;3.80;99.90
26262;DHT22;13988;52.446;13.280;2022-11-06T06:27:03;3.80;99.90
26262;DHT22;13988;52.446;13.280;2022-11-06T06:29:29;3.70;99.90
26262;DHT22;13988;52.446;13.280;2022-11-06T06:31:55;3.80;99.90
26262;DHT22;13988;52.446;13.280;2022-11-06T06:34:20;3.80;99.90
26262;DHT22;13988;52.446;13.280;2022-11-06T06:36:52;3.90;99.90
26262;DHT22;13988;52.446;13.280;2022-11-06T06:39:19;3.90;99.90
26262;DHT22;13988;52.446;13.280;2022-11-06T06:41:45;4.00;99.90
26262;DHT22;13988;52.446;13.280;2022-11-06T06:44:11;4.10;99.90
26262;DHT22;13988;52.446;13.280;2022-11-06T06:46:36;4.00;99.90
26262;DHT22;13988;52.446;13.280;2022-11-06T06:49:02;4.00;99.90
26262;DHT22;13988;52.446;13.280;2022-11-06T06:51:28;4.00;99.90
26262;DHT22;13988;52.446;13.280;2022-11-06T06:53:53;4.00;99.90
26262;DHT22;13988;52.446;13.280;2022-11-06T06:56:19;4.00;99.90
26262;DHT22;13988;52.446;13.280;2022-11-06T06:58:44;4.10;99.90
26262;DHT22;13988;52.446;13.280;2022-11-06T07:01:10;4.10;99.90
26262;DHT22;13988;52.446;13.280;2022-11-06T07:03:36;4.20;99.90
26262;DHT22;13988;52.446;13.280;2022-11-06T07:06:03;4.20;99.90
26262;DHT22;13988;52.446;13.280;2022-11-06T07:08:29;4.40;99.90
26262;DHT22;13988;52.446;13.280;2022-11-06T07:10:59;4.40;99.90
26262;DHT22;13988;52.446;13.280;2022-11-06T07:13:24;4.50;99.90
26262;DHT22;13988;52.446;13.280;2022-11-06T07:15:50;4.60;99.90
26262;DHT22;13988;52.446;13.280;2022-11-06T07:18:15;4.70;99.90
26262;DHT22;13988;52.446;13.280;2022-11-06T07:20:41;4.80;99.90
26262;DHT22;13988;52.446;13.280;2022-11-06T07:23:07;4.70;99.90
26262;DHT22;13988;52.446;13.280;2022-11-06T07:25:34;4.80;99.90
26262;DHT22;13988;52.446;13.280;2022-11-06T07:28:04;4.80;99.90
26262;DHT22;13988;52.446;13.280;2022-11-06T07:30:30;4.80;99.90
26262;DHT22;13988;52.446;13.280;2022-11-06T07:32:59;4.80;99.90
26262;DHT22;13988;52.446;13.280;2022-11-06T07:35:24;4.90;99.90
26262;DHT22;13988;52.446;13.280;2022-11-06T07:37:50;4.90;99.90
26262;DHT22;13988;52.446;13.280;2022-11-06T07:40:16;4.90;99.90
26262;DHT22;13988;52.446;13.280;2022-11-06T07:42:41;5.00;99.90
26262;DHT22;13988;52.446;13.280;2022-11-06T07:45:07;5.10;99.90
26262;DHT22;13988;52.446;13.280;2022-11-06T07:47:33;5.20;99.90
26262;DHT22;13988;52.446;13.280;2022-11-06T07:49:58;5.20;99.90
26262;DHT22;13988;52.446;13.280;2022-11-06T07:52:24;5.20;99.90
26262;DHT22;13988;52.446;13.280;2022-11-06T07:54:50;5.20;99.90
26262;DHT22;13988;52.446;13.280;2022-11-06T07:57:15;5.40;99.90
26262;DHT22;13988;52.446;13.280;2022-11-06T07:59:41;5.40;99.90
26262;DHT22;13988;52.446;13.280;2022-11-06T08:02:10;5.50;99.90
26262;DHT22;13988;52.446;13.280;2022-11-06T08:04:36;5.60;99.90
26262;DHT22;13988;52.446;13.280;2022-11-06T08:07:01;5.60;99.90
26262;DHT22;13988;52.446;13.280;2022-11-06T08:09:27;5.70;99.90
26262;DHT22;13988;52.446;13.280;2022-11-06T08:11:52;5.70;99.90
26262;DHT22;13988;52.446;13.280;2022-11-06T08:14:18;5.80;99.90
26262;DHT22;13988;52.446;13.280;2022-11-06T08:16:43;5.80;99.90
26262;DHT22;13988;52.446;13.280;2022-11-06T08:19:09;5.80;99.90
26262;DHT22;13988;52.446;13.280;2022-11-06T08:21:34;5.90;99.90
26262;DHT22;13988;52.446;13.280;2022-11-06T08:24:00;5.90;99.90
26262;DHT22;13988;52.446;13.280;2022-11-06T08:26:25;6.00;99.90
26262;DHT22;13988;52.446;13.280;2022-11-06T08:28:51;6.20;99.90
26262;DHT22;13988;52.446;13.280;2022-11-06T08:31:17;6.30;99.90
26262;DHT22;13988;52.446;13.280;2022-11-06T08:33:43;6.30;99.90
26262;DHT22;13988;52.446;13.280;2022-11-06T08:36:09;6.30;99.90
26262;DHT22;13988;52.446;13.280;2022-11-06T08:38:35;6.40;99.90
26262;DHT22;13988;52.446;13.280;2022-11-06T08:41:09;6.40;99.90
26262;DHT22;13988;52.446;13.280;2022-11-06T08:43:35;6.40;99.90
26262;DHT22;13988;52.446;13.280;2022-11-06T08:46:02;6.50;99.90
26262;DHT22;13988;52.446;13.280;2022-11-06T08:48:28;6.60;99.90
26262;DHT22;13988;52.446;13.280;2022-11-06T08:50:53;6.70;99.90
26262;DHT22;13988;52.446;13.280;2022-11-06T08:53:19;6.70;99.90
26262;DHT22;13988;52.446;13.280;2022-11-06T08:55:45;6.80;99.90
26262;DHT22;13988;52.446;13.280;2022-11-06T08:58:10;6.90;99.90
26262;DHT22;13988;52.446;13.280;2022-11-06T09:00:36;6.90;99.90
26262;DHT22;13988;52.446;13.280;2022-11-06T09:03:05;7.00;99.90
26262;DHT22;13988;52.446;13.280;2022-11-06T09:05:31;7.20;99.90
26262;DHT22;13988;52.446;13.280;2022-11-06T09:07:57;7.20;99.90
26262;DHT22;13988;52.446;13.280;2022-11-06T09:10:24;7.20;99.90
26262;DHT22;13988;52.446;13.280;2022-11-06T09:12:50;7.30;99.90
26262;DHT22;13988;52.446;13.280;2022-11-06T09:15:16;7.30;99.90
26262;DHT22;13988;52.446;13.280;2022-11-06T09:17:45;7.40;99.90
26262;DHT22;13988;52.446;13.280;2022-11-06T09:20:12;7.30;99.90
26262;DHT22;13988;52.446;13.280;2022-11-06T09:22:38;7.50;99.90
26262;DHT22;13988;52.446;13.280;2022-11-06T09:25:05;7.50;99.90
26262;DHT22;13988;52.446;13.280;2022-11-06T09:27:31;7.60;99.90
26262;DHT22;13988;52.446;13.280;2022-11-06T09:29:56;7.70;99.90
26262;DHT22;13988;52.446;13.280;2022-11-06T09:32:22;7.70;99.90
26262;DHT22;13988;52.446;13.280;2022-11-06T09:34:48;7.80;99.90
26262;DHT22;13988;52.446;13.280;2022-11-06T09:37:14;7.80;99.90
26262;DHT22;13988;52.446;13.280;2022-11-06T09:39:39;7.90;99.90
26262;DHT22;13988;52.446;13.280;2022-11-06T09:42:16;8.00;99.90
26262;DHT22;13988;52.446;13.280;2022-11-06T09:47:22;8.10;99.90
26262;DHT22;13988;52.446;13.280;2022-11-06T09:49:52;8.20;99.90
26262;DHT22;13988;52.446;13.280;2022-11-06T09:52:32;8.30;99.90
26262;DHT22;13988;52.446;13.280;2022-11-06T09:55:05;8.30;99.90
26262;DHT22;13988;52.446;13.280;2022-11-06T09:57:38;8.40;99.90
26262;DHT22;13988;52.446;13.280;2022-11-06T10:00:05;8.50;99.90
26262;DHT22;13988;52.446;13.280;2022-11-06T10:05:36;8.60;99.90
26262;DHT22;13988;52.446;13.280;2022-11-06T10:08:05;8.60;99.90
26262;DHT22;13988;52.446;13.280;2022-11-06T10:13:37;8.80;99.90
26262;DHT22;13988;52.446;13.280;2022-11-06T10:18:57;8.90;99.90
26262;DHT22;13988;52.446;13.280;2022-11-06T10:21:41;9.00;99.90
26262;DHT22;13988;52.446;13.280;2022-11-06T10:24:20;9.10;99.90
26262;DHT22;13988;52.446;13.280;2022-11-06T10:26:51;9.00;99.90
26262;DHT22;13988;52.446;13.280;2022-11-06T10:34:41;9.20;99.90
26262;DHT22;13988;52.446;13.280;2022-11-06T10:37:17;9.20;99.90
26262;DHT22;13988;52.446;13.280;2022-11-06T10:39:45;9.30;99.90
26262;DHT22;13988;52.446;13.280;2022-11-06T10:42:30;9.30;99.90
26262;DHT22;13988;52.446;13.280;2022-11-06T10:45:00;9.30;99.90
26262;DHT22;13988;52.446;13.280;2022-11-06T10:47:32;9.40;99.90
26262;DHT22;13988;52.446;13.280;2022-11-06T10:50:02;9.60;99.90
26262;DHT22;13988;52.446;13.280;2022-11-06T10:58:38;9.60;99.90
26262;DHT22;13988;52.446;13.280;2022-11-06T11:01:04;9.60;99.90
26262;DHT22;13988;52.446;13.280;2022-11-06T11:03:36;9.60;99.90
26262;DHT22;13988;52.446;13.280;2022-11-06T11:06:04;9.60;99.90
26262;DHT22;13988;52.446;13.280;2022-11-06T11:08:37;9.50;99.90
26262;DHT22;13988;52.446;13.280;2022-11-06T11:13:40;9.70;99.90
26262;DHT22;13988;52.446;13.280;2022-11-06T11:16:18;9.80;99.90
26262;DHT22;13988;52.446;13.280;2022-11-06T11:18:46;10.10;99.90
26262;DHT22;13988;52.446;13.280;2022-11-06T11:23:37;10.20;99.90
26262;DHT22;13988;52.446;13.280;2022-11-06T11:26:24;10.30;99.90
26262;DHT22;13988;52.446;13.280;2022-11-06T11:28:55;10.50;99.90
26262;DHT22;13988;52.446;13.280;2022-11-06T11:31:28;10.40;99.90
26262;DHT22;13988;52.446;13.280;2022-11-06T11:33:55;10.70;99.90
26262;DHT22;13988;52.446;13.280;2022-11-06T11:36:22;10.90;99.90
26262;DHT22;13988;52.446;13.280;2022-11-06T11:38:47;10.90;99.90
26262;DHT22;13988;52.446;13.280;2022-11-06T11:46:45;11.30;99.90
26262;DHT22;13988;52.446;13.280;2022-11-06T11:49:26;11.50;99.90
26262;DHT22;13988;52.446;13.280;2022-11-06T11:51:52;11.60;99.90
26262;DHT22;13988;52.446;13.280;2022-11-06T11:54:23;11.50;99.90
26262;DHT22;13988;52.446;13.280;2022-11-06T11:56:55;12.20;99.90
26262;DHT22;13988;52.446;13.280;2022-11-06T11:59:41;13.00;99.90
26262;DHT22;13988;52.446;13.280;2022-11-06T12:02:26;12.70;99.90
26262;DHT22;13988;52.446;13.280;2022-11-06T12:04:58;12.70;99.90
26262;DHT22;13988;52.446;13.280;2022-11-06T12:07:36;12.50;99.90
26262;DHT22;13988;52.446;13.280;2022-11-06T12:10:33;12.60;99.90
26262;DHT22;13988;52.446;13.280;2022-11-06T12:13:05;12.80;99.90
26262;DHT22;13988;52.446;13.280;2022-11-06T12:16:03;13.50;99.90
26262;DHT22;13988;52.446;13.280;2022-11-06T12:18:32;13.20;99.90
26262;DHT22;13988;52.446;13.280;2022-11-06T12:21:06;12.70;99.90
26262;DHT22;13988;52.446;13.280;2022-11-06T12:23:56;11.70;99.90
26262;DHT22;13988;52.446;13.280;2022-11-06T12:28:56;13.00;99.90
26262;DHT22;13988;52.446;13.280;2022-11-06T12:34:09;12.70;99.90
26262;DHT22;13988;52.446;13.280;2022-11-06T12:36:42;14.30;99.90
26262;DHT22;13988;52.446;13.280;2022-11-06T12:39:19;15.10;99.90
26262;DHT22;13988;52.446;13.280;2022-11-06T12:41:48;13.80;99.90
26262;DHT22;13988;52.446;13.280;2022-11-06T12:44:15;13.40;99.90
26262;DHT22;13988;52.446;13.280;2022-11-06T12:55:03;14.60;99.90
26262;DHT22;13988;52.446;13.280;2022-11-06T12:57:53;15.40;99.90
26262;DHT22;13988;52.446;13.280;2022-11-06T13:00:32;16.30;99.90
26262;DHT22;13988;52.446;13.280;2022-11-06T13:05:43;15.20;99.90
26262;DHT22;13988;52.446;13.280;2022-11-06T13:08:18;15.60;99.90
26262;DHT22;13988;52.446;13.280;2022-11-06T13:13:44;16.00;99.90
26262;DHT22;13988;52.446;13.280;2022-11-06T13:18:57;15.50;99.90
26262;DHT22;13988;52.446;13.280;2022-11-06T13:24:11;16.30;99.90
26262;DHT22;13988;52.446;13.280;2022-11-06T13:29:08;16.10;99.90
26262;DHT22;13988;52.446;13.280;2022-11-06T13:31:39;14.90;99.90
26262;DHT22;13988;52.446;13.280;2022-11-06T13:34:06;14.90;99.90
26262;DHT22;13988;52.446;13.280;2022-11-06T13:36:37;14.90;99.90
26262;DHT22;13988;52.446;13.280;2022-11-06T13:39:14;13.70;99.90
26262;DHT22;13988;52.446;13.280;2022-11-06T13:41:40;13.00;99.90
26262;DHT22;13988;52.446;13.280;2022-11-06T13:44:08;12.70;99.90
26262;DHT22;13988;52.446;13.280;2022-11-06T13:47:03;12.40;99.90
26262;DHT22;13988;52.446;13.280;2022-11-06T13:49:43;12.40;99.90
26262;DHT22;13988;52.446;13.280;2022-11-06T13:52:33;11.80;99.90
26262;DHT22;13988;52.446;13.280;2022-11-06T13:55:05;12.00;99.90
26262;DHT22;13988;52.446;13.280;2022-11-06T13:57:53;12.10;99.90
26262;DHT22;13988;52.446;13.280;2022-11-06T14:03:22;11.80;99.90
26262;DHT22;13988;52.446;13.280;2022-11-06T14:06:14;11.70;99.90
26262;DHT22;13988;52.446;13.280;2022-11-06T14:08:45;11.40;99.90
26262;DHT22;13988;52.446;13.280;2022-11-06T14:11:20;11.20;99.90
26262;DHT22;13988;52.446;13.280;2022-11-06T14:14:01;11.20;99.90
26262;DHT22;13988;52.446;13.280;2022-11-06T14:16:32;11.10;99.90
26262;DHT22;13988;52.446;13.280;2022-11-06T14:24:38;10.70;99.90
26262;DHT22;13988;52.446;13.280;2022-11-06T14:27:08;10.70;99.90
26262;DHT22;13988;52.446;13.280;2022-11-06T14:34:42;10.50;99.90
26262;DHT22;13988;52.446;13.280;2022-11-06T14:42:36;10.30;99.90
26262;DHT22;13988;52.446;13.280;2022-11-06T14:45:09;10.20;99.90
26262;DHT22;13988;52.446;13.280;2022-11-06T14:47:56;10.10;99.90
26262;DHT22;13988;52.446;13.280;2022-11-06T14:50:25;10.20;99.90
26262;DHT22;13988;52.446;13.280;2022-11-06T14:52:59;10.00;99.90
26262;DHT22;13988;52.446;13.280;2022-11-06T14:55:29;9.90;99.90
26262;DHT22;13988;52.446;13.280;2022-11-06T14:58:11;9.80;99.90
26262;DHT22;13988;52.446;13.280;2022-11-06T15:03:53;9.70;99.90
26262;DHT22;13988;52.446;13.280;2022-11-06T15:06:40;9.70;99.90
26262;DHT22;13988;52.446;13.280;2022-11-06T15:16:54;9.40;99.90
26262;DHT22;13988;52.446;13.280;2022-11-06T15:22:04;9.30;99.90
26262;DHT22;13988;52.446;13.280;2022-11-06T15:24:36;9.20;99.90
26262;DHT22;13988;52.446;13.280;2022-11-06T15:27:16;9.10;99.90
26262;DHT22;13988;52.446;13.280;2022-11-06T15:29:44;9.10;99.90
26262;DHT22;13988;52.446;13.280;2022-11-06T15:32:17;9.00;99.90
26262;DHT22;13988;52.446;13.280;2022-11-06T15:34:48;9.00;99.90
26262;DHT22;13988;52.446;13.280;2022-11-06T15:37:18;8.90;99.90
26262;DHT22;13988;52.446;13.280;2022-11-06T15:39:52;8.80;99.90
26262;DHT22;13988;52.446;13.280;2022-11-06T15:42:29;8.80;99.90
26262;DHT22;13988;52.446;13.280;2022-11-06T15:45:07;8.70;99.90
26262;DHT22;13988;52.446;13.280;2022-11-06T15:47:33;8.60;99.90
26262;DHT22;13988;52.446;13.280;2022-11-06T15:50:17;8.50;99.90
26262;DHT22;13988;52.446;13.280;2022-11-06T15:52:44;8.40;99.90
26262;DHT22;13988;52.446;13.280;2022-11-06T15:55:27;8.40;99.90
26262;DHT22;13988;52.446;13.280;2022-11-06T15:57:53;8.30;99.90
26262;DHT22;13988;52.446;13.280;2022-11-06T16:00:23;8.20;99.90
26262;DHT22;13988;52.446;13.280;2022-11-06T16:02:57;8.00;99.90
26262;DHT22;13988;52.446;13.280;2022-11-06T16:05:24;8.00;99.90
26262;DHT22;13988;52.446;13.280;2022-11-06T16:07:51;7.90;99.90
26262;DHT22;13988;52.446;13.280;2022-11-06T16:10:19;7.80;99.90
26262;DHT22;13988;52.446;13.280;2022-11-06T16:12:46;7.80;99.90
26262;DHT22;13988;52.446;13.280;2022-11-06T16:21:17;7.60;99.90
26262;DHT22;13988;52.446;13.280;2022-11-06T16:23:49;7.70;99.90
26262;DHT22;13988;52.446;13.280;2022-11-06T16:26:22;7.50;99.90
26262;DHT22;13988;52.446;13.280;2022-11-06T16:28:49;7.50;99.90
26262;DHT22;13988;52.446;13.280;2022-11-06T16:31:19;7.60;99.90
26262;DHT22;13988;52.446;13.280;2022-11-06T16:34:19;7.40;99.90
26262;DHT22;13988;52.446;13.280;2022-11-06T16:36:57;7.30;99.90
26262;DHT22;13988;52.446;13.280;2022-11-06T16:41:59;7.30;99.90
26262;DHT22;13988;52.446;13.280;2022-11-06T16:44:27;7.30;99.90
26262;DHT22;13988;52.446;13.280;2022-11-06T16:47:41;7.30;99.90
26262;DHT22;13988;52.446;13.280;2022-11-06T16:50:00;7.40;99.90
26262;DHT22;13988;52.446;13.280;2022-11-06T16:52:37;7.40;99.90
26262;DHT22;13988;52.446;13.280;2022-11-06T16:57:52;7.40;99.90
26262;DHT22;13988;52.446;13.280;2022-11-06T17:03:06;7.40;99.90
26262;DHT22;13988;52.446;13.280;2022-11-06T17:05:33;7.30;99.90
26262;DHT22;13988;52.446;13.280;2022-11-06T17:08:21;7.20;99.90
26262;DHT22;13988;52.446;13.280;2022-11-06T17:10:57;7.20;99.90
26262;DHT22;13988;52.446;13.280;2022-11-06T17:13:26;7.10;99.90
26262;DHT22;13988;52.446;13.280;2022-11-06T17:16:03;7.10;99.90
26262;DHT22;13988;52.446;13.280;2022-11-06T17:18:37;7.10;99.90
26262;DHT22;13988;52.446;13.280;2022-11-06T17:21:12;7.00;99.90
26262;DHT22;13988;52.446;13.280;2022-11-06T17:23:38;7.00;99.90
26262;DHT22;13988;52.446;13.280;2022-11-06T17:26:05;6.90;99.90
26262;DHT22;13988;52.446;13.280;2022-11-06T17:28:31;6.90;99.90
26262;DHT22;13988;52.446;13.280;2022-11-06T17:30:57;6.90;99.90
26262;DHT22;13988;52.446;13.280;2022-11-06T17:33:22;6.90;99.90
26262;DHT22;13988;52.446;13.280;2022-11-06T17:35:48;6.90;99.90
26262;DHT22;13988;52.446;13.280;2022-11-06T17:38:15;6.80;99.90
26262;DHT22;13988;52.446;13.280;2022-11-06T17:40:41;6.90;99.90
26262;DHT22;13988;52.446;13.280;2022-11-06T17:43:07;6.90;99.90
26262;DHT22;13988;52.446;13.280;2022-11-06T17:45:33;6.90;99.90
26262;DHT22;13988;52.446;13.280;2022-11-06T17:47:59;6.90;99.90
26262;DHT22;13988;52.446;13.280;2022-11-06T17:50:24;6.90;99.90
26262;DHT22;13988;52.446;13.280;2022-11-06T17:52:50;6.90;99.90
26262;DHT22;13988;52.446;13.280;2022-11-06T17:55:15;6.80;99.90
26262;DHT22;13988;52.446;13.280;2022-11-06T17:57:41;6.80;99.90
26262;DHT22;13988;52.446;13.280;2022-11-06T18:00:07;6.80;99.90
26262;DHT22;13988;52.446;13.280;2022-11-06T18:02:34;6.70;99.90